Latest Weather Observations for Dunalley

IDT60901

Issued at 11:21 pm EST Monday 3 August 2015 (issued every 10 minutes, with the page automatically refreshed every 10 minutes)

About weather observations | Map of Hobart area stations | Latest observations for Hobart area | Other Formats
Station Details ID: 094254 Name: DUNALLEY (STROUD POINT) Lat: -42.90 Lon: 147.79 Height: 12.43 m
Data from the previous 72 hours. | See also: Recent months at Dunalley
Date/Time
EST
Tmp

°C
App
Tmp
°C
Dew
Point
°C
Rel
Hum
%
Delta-T

°C
Wind Press
QNH
hPa
Press
MSL
hPa
Rain
since
9 am
mm
Dir
 
Spd
km/h
Gust
km/h
Spd
kts
Gust
kts
03/11:00pm 4.1 -2.1 -0.5 72 1.7 NW 22 32 12 17 1016.1 1016.2 4.2
03/10:30pm 4.3 -1.5 -0.1 73 1.7 WNW 20 28 11 15 1016.1 1016.2 4.2
03/10:00pm 4.0 -1.6 0.2 76 1.4 NW 19 26 10 14 1016.0 1016.1 4.2
03/09:30pm 5.5 -2.3 1.6 76 1.6 W 32 35 17 19 1015.6 1015.7 4.2
03/09:00pm 5.0 -1.6 2.0 81 1.2 W 26 37 14 20 1015.5 1015.6 4.2
03/08:30pm 4.2 -2.1 1.4 82 1.1 W 24 35 13 19 1015.3 1015.4 4.2
03/08:00pm 5.2 -2.1 2.4 82 1.1 WSW 30 35 16 19 1014.5 1014.6 4.2
03/07:30pm 5.2 -3.3 2.9 85 0.9 WSW 37 44 20 24 1013.9 1014.0 4.2
03/07:00pm 5.3 -5.3 3.3 87 0.8 W 48 57 26 31 1013.4 1013.5 4.0
03/06:30pm 5.2 -4.5 2.7 84 1.0 W 43 54 23 29 1012.9 1012.9 3.6
03/06:14pm 5.5 -4.3 3.3 86 0.9 WSW 44 63 24 34 1012.4 1012.4 3.6
03/06:00pm 6.0 -4.6 3.2 82 1.2 WSW 48 57 26 31 1012.0 1012.0 3.6
03/05:30pm 6.2 -2.7 3.2 81 1.3 SW 39 48 21 26 1011.4 1011.4 3.4
03/05:00pm 6.1 -3.8 2.7 79 1.4 WSW 44 54 24 29 1010.3 1010.3 3.2
03/04:40pm 4.8 -6.2 3.0 88 0.7 WSW 50 65 27 35 1009.4 1009.4 3.2
03/04:30pm 5.6 -4.5 3.9 89 0.7 WSW 46 56 25 30 1008.7 1008.7 2.8
03/04:00pm 4.8 -6.2 3.1 89 0.7 W 50 61 27 33 1007.9 1007.9 2.0
03/03:30pm 5.4 -6.0 2.8 83 1.1 W 52 65 28 35 1007.0 1007.0 1.4
03/03:19pm 5.3 -4.4 2.8 84 1.0 W 43 63 23 34 1006.7 1006.7 1.4
03/03:00pm 4.5 -5.8 2.8 89 0.7 W 46 57 25 31 1006.4 1006.4 1.0
03/02:30pm 4.4 -6.3 2.6 88 0.7 W 48 59 26 32 1006.1 1006.1 0.6
03/02:00pm 5.1 -7.3 2.6 84 1.0 W 57 67 31 36 1004.8 1004.8 0.2
03/01:30pm 6.5 -3.6 1.6 71 2.0 W 44 57 24 31 1003.9 1003.9 0.0
03/01:00pm 6.0 -2.9 1.0 70 2.0 W 37 48 20 26 1003.8 1003.8 0.0
03/12:30pm 5.2 -2.4 0.4 71 1.8 WNW 30 43 16 23 1003.3 1003.3 0.0
03/12:00pm 5.2 -3.0 0.2 70 1.9 W 33 44 18 24 1002.8 1002.8 0.0
03/11:41am 5.2 -4.1 0.6 72 1.8 W 39 54 21 29 1002.5 1002.5 0.0
03/11:30am 4.6 -6.3 1.5 80 1.2 W 48 61 26 33 1002.4 1002.4 0.0
03/11:13am 4.6 -6.0 0.7 76 1.5 W 46 67 25 36 1001.8 1001.8 0.0
03/11:07am 5.5 -3.5 0.3 69 2.0 W 37 57 20 31 1001.8 1001.8 0.0
03/11:00am 5.7 -3.0 -0.4 65 2.3 W 35 46 19 25 1001.9 1001.9 0.0
03/10:30am 5.0 -3.7 -0.4 68 2.0 W 35 50 19 27 1001.4 1001.4 0.0
03/10:17am 5.3 -2.0 -0.1 68 2.1 W 28 48 15 26 1001.0 1001.0 0.0
03/10:00am 4.3 -2.6 -0.1 73 1.7 WNW 26 39 14 21 1000.8 1000.8 0.0
03/09:30am 3.7 -3.3 -0.7 73 1.6 WNW 26 39 14 21 1000.7 1000.7 0.0
03/09:00am 3.1 -5.3 -0.7 76 1.4 NW 33 44 18 24 1000.2 1000.2 3.4
03/08:30am 2.2 -4.9 -0.9 80 1.1 NW 26 35 14 19 1000.0 1000.0 3.4
03/08:00am 1.8 -3.5 -0.8 83 0.9 WNW 17 32 9 17 999.7 999.7 3.4
03/07:30am 1.1 -3.4 -0.1 92 0.4 WNW 13 24 7 13 999.1 999.1 3.2
03/07:00am 1.3 -7.3 0.3 93 0.4 WSW 35 50 19 27 998.4 998.4 3.2
03/06:52am 1.8 -6.4 0.3 90 0.6 WSW 33 50 18 27 999.0 999.0 2.8
03/06:30am 1.7 -4.5 -0.4 86 0.8 W 22 30 12 16 998.2 998.2 2.6
03/06:00am 1.9 -6.3 0.4 90 0.6 W 33 46 18 25 997.0 997.0 2.6
03/05:30am 2.2 -3.6 -0.2 84 0.9 WNW 20 32 11 17 997.0 997.0 2.4
03/05:00am 2.5 -3.3 0.2 85 0.9 WNW 20 30 11 16 996.2 996.2 2.4
03/04:30am 2.8 -4.7 1.0 88 0.7 W 30 41 16 22 996.5 996.5 2.4
03/04:00am 3.9 -3.7 0.8 80 1.2 W 30 37 16 20 995.8 995.8 2.0
03/03:30am 3.5 -2.6 0.2 79 1.2 WNW 22 32 12 17 995.0 995.0 2.0
03/03:00am 3.6 -2.9 0.3 79 1.3 WNW 24 33 13 18 994.9 994.9 2.0
03/02:30am 3.2 -2.6 0.1 80 1.2 WNW 20 28 11 15 995.0 995.0 2.0
03/02:00am 3.8 -3.5 0.1 77 1.4 WNW 28 43 15 23 994.7 994.7 2.0
03/01:30am 4.0 -2.5 0.2 76 1.4 WNW 24 39 13 21 994.6 994.6 2.0
03/01:00am 4.2 -3.1 0.2 75 1.5 NW 28 43 15 23 993.7 993.7 2.0
03/12:30am 4.2 -2.6 0.7 78 1.3 NW 26 43 14 23 994.0 994.0 2.0
03/12:00am 4.2 -0.8 1.1 80 1.2 W 17 28 9 15 994.9 994.9 2.0
 
Date/Time
EST
Tmp

°C
App
Tmp
°C
Dew
Point
°C
Rel
Hum
%
Delta-T

°C
Wind Press
QNH
hPa
Press
MSL
hPa
Rain
since
9 am
mm
Dir
 
Spd
km/h
Gust
km/h
Spd
kts
Gust
kts
02/11:30pm 4.5 -1.2 0.8 77 1.4 NW 20 33 11 18 994.8 994.8 2.0
02/11:00pm 4.2 -2.6 0.9 79 1.3 NW 26 46 14 25 994.3 994.3 2.0
02/10:30pm 3.6 -2.0 1.3 85 0.9 NW 20 37 11 20 995.0 995.0 2.0
02/10:02pm 5.1 -2.1 0.5 72 1.8 NW 28 57 15 31 995.3 995.3 0.2
02/10:00pm 5.6 -1.3 0.0 67 2.2 NW 26 43 14 23 995.3 995.3 0.2
02/09:30pm 5.7 -0.3 -1.7 59 2.7 NW 20 30 11 16 995.1 995.1 0.2
02/09:00pm 5.2 -0.7 -2.1 59 2.7 NW 19 30 10 16 995.3 995.3 0.2
02/08:30pm 5.5 -1.4 -2.3 57 2.8 NW 24 35 13 19 995.7 995.7 0.2
02/08:00pm 5.3 -1.1 -1.4 62 2.5 NW 22 39 12 21 996.0 996.0 0.2
02/07:30pm 5.1 -1.2 -0.7 66 2.2 WNW 22 32 12 17 996.3 996.3 0.2
02/07:00pm 4.7 -1.9 -0.7 68 2.0 WNW 24 37 13 20 996.0 996.0 0.2
02/06:30pm 5.3 -2.2 -1.2 63 2.4 WNW 28 41 15 22 996.1 996.1 0.2
02/06:00pm 5.2 -1.4 -0.2 68 2.1 WNW 24 32 13 17 996.3 996.3 0.2
02/05:30pm 5.7 -2.1 -1.0 62 2.5 WNW 30 43 16 23 995.9 995.9 0.2
02/05:00pm 5.4 -1.2 -0.6 65 2.3 WNW 24 37 13 20 995.5 995.5 0.2
02/04:30pm 5.9 -1.0 0.3 67 2.2 WNW 26 37 14 20 995.1 995.1 0.2
02/04:00pm 6.4 -1.2 0.7 67 2.3 W 30 37 16 20 995.2 995.2 0.2
02/03:30pm 7.1 -2.5 1.2 66 2.4 W 41 61 22 33 995.2 995.2 0.2
02/03:12pm 7.3 -1.9 1.0 64 2.5 W 39 57 21 31 994.8 994.8 0.2
02/03:00pm 6.8 0.1 1.3 68 2.2 W 26 43 14 23 994.6 994.6 0.2
02/02:30pm 6.5 -3.5 2.4 75 1.7 W 44 56 24 30 995.6 995.6 0.2
02/02:20pm 6.2 -6.0 2.5 77 1.5 W 56 76 30 41 995.5 995.5 0.2
02/02:11pm 6.7 -5.2 2.2 73 1.8 WSW 54 76 29 41 994.9 994.9 0.0
02/02:04pm 7.4 -1.9 3.1 74 1.8 W 41 59 22 32 994.4 994.4 0.0
02/02:00pm 7.7 -0.3 3.6 75 1.8 W 35 52 19 28 994.5 994.5 0.0
02/01:30pm 8.4 -1.1 3.7 72 2.0 WNW 43 63 23 34 994.1 994.1 0.0
02/01:06pm 9.8 0.1 3.8 66 2.6 W 44 69 24 37 993.4 993.4 0.0
02/01:00pm 10.1 0.4 4.0 66 2.7 WNW 44 69 24 37 993.1 993.1 0.0
02/12:30pm 12.9 3.9 2.5 49 4.5 NW 39 65 21 35 992.3 992.3 0.0
02/12:00pm 13.8 5.3 1.1 42 5.5 NW 35 65 19 35 992.8 992.8 0.0
02/11:30am 12.8 4.7 1.2 45 4.9 NW 33 54 18 29 993.3 993.3 0.0
02/11:00am 12.5 3.6 0.9 45 4.9 NW 37 65 20 35 994.0 994.0 0.0
02/10:30am 11.9 3.0 0.7 46 4.7 NW 37 57 20 31 994.5 994.5 0.0
02/10:04am 11.7 3.8 0.8 47 4.5 NW 32 50 17 27 995.3 995.3 0.0
02/10:00am 11.5 3.3 0.6 47 4.6 NW 33 50 18 27 995.4 995.4 0.0
02/09:33am 11.0 2.8 0.4 48 4.3 NW 33 59 18 32 996.2 996.2 0.0
02/09:30am 10.9 2.7 0.3 48 4.3 NW 33 52 18 28 996.4 996.4 0.0
02/09:09am 10.4 3.2 0.4 50 4.1 NW 28 50 15 27 997.2 997.2 0.0
02/09:00am 10.3 3.0 0.3 50 4.1 NW 28 43 15 23 997.4 997.4 0.0
02/08:30am 9.5 1.5 0.1 52 3.8 NW 32 52 17 28 998.1 998.1 0.0
02/08:00am 8.9 1.2 -0.1 53 3.6 WNW 30 52 16 28 998.7 998.7 0.0
02/07:49am 8.4 1.1 -0.1 55 3.3 WNW 28 46 15 25 998.9 998.9 0.0
02/07:30am 8.5 0.8 0.0 55 3.4 NW 30 41 16 22 999.0 999.0 0.0
02/07:25am 8.4 0.7 -0.1 55 3.3 NW 30 50 16 27 999.0 999.0 0.0
02/07:00am 8.4 1.1 -0.1 55 3.4 NW 28 44 15 24 998.9 998.9 0.0
02/06:30am 8.3 2.1 -0.2 55 3.3 NNW 22 39 12 21 999.4 999.4 0.0
02/06:00am 8.2 2.4 -0.3 55 3.4 N 20 41 11 22 999.8 999.8 0.0
02/05:30am 6.4 2.4 0.3 65 2.4 NNE 11 24 6 13 1000.5 1000.5 0.0
02/05:00am 6.7 3.5 -0.7 59 2.8 NNW 6 11 3 6 1001.0 1001.0 0.0
02/04:30am 7.1 2.2 -0.4 59 2.9 NW 15 24 8 13 1001.4 1001.4 0.0
02/04:00am 8.2 2.6 -0.3 55 3.3 NW 19 32 10 17 1001.8 1001.8 0.0
02/03:30am 6.8 2.3 -0.4 60 2.8 NNW 13 22 7 12 1002.4 1002.4 0.0
02/03:00am 5.0 0.9 0.0 70 1.9 NNW 11 19 6 10 1003.0 1003.0 0.0
02/02:30am 5.5 2.1 -0.3 66 2.2 NW 7 13 4 7 1003.5 1003.5 0.0
02/02:00am 5.8 2.0 -0.5 64 2.4 NW 9 17 5 9 1003.7 1003.7 0.0
02/01:30am 7.3 3.1 -0.6 57 3.0 NNW 11 24 6 13 1004.1 1004.1 0.0
02/01:00am 6.5 2.3 -0.7 60 2.8 NNW 11 20 6 11 1004.6 1004.6 0.0
02/12:30am 6.9 2.3 -0.8 58 2.9 NNW 13 32 7 17 1004.9 1004.9 0.0
02/12:00am 6.1 2.3 -1.1 60 2.7 NNW 9 15 5 8 1005.3 1005.3 0.0
 
Date/Time
EST
Tmp

°C
App
Tmp
°C
Dew
Point
°C
Rel
Hum
%
Delta-T

°C
Wind Press
QNH
hPa
Press
MSL
hPa
Rain
since
9 am
mm
Dir
 
Spd
km/h
Gust
km/h
Spd
kts
Gust
kts
01/11:30pm 7.1 2.9 -0.8 57 3.0 NNW 11 20 6 11 1005.6 1005.6 0.0
01/11:00pm 6.7 2.8 -1.2 57 3.0 NW 9 13 5 7 1005.8 1005.8 0.0
01/10:30pm 6.9 2.6 -1.3 56 3.1 NW 11 22 6 12 1006.1 1006.1 0.0
01/10:00pm 7.3 1.0 -0.9 56 3.1 NW 22 37 12 20 1006.1 1006.1 0.0
01/09:30pm 7.2 0.5 -1.0 56 3.1 NW 24 41 13 22 1005.9 1005.9 0.0
01/09:00pm 7.0 1.0 -1.2 56 3.1 NW 20 32 11 17 1006.1 1006.1 0.0
01/08:30pm 7.1 1.8 -0.8 57 3.0 NW 17 26 9 14 1006.6 1006.6 0.0
01/08:00pm 6.8 2.5 -1.3 56 3.1 N 11 20 6 11 1006.7 1006.7 0.0
01/07:30pm 7.1 1.3 -1.3 55 3.2 NW 19 32 10 17 1006.5 1006.5 0.0
01/07:00pm 7.4 -0.8 -1.0 55 3.2 NW 32 43 17 23 1005.9 1005.9 0.0
01/06:30pm 7.7 -1.1 -1.3 53 3.4 NW 35 44 19 24 1005.8 1005.8 0.0
01/06:00pm 7.5 1.2 -0.7 56 3.2 NW 22 35 12 19 1005.9 1005.9 0.0
01/05:30pm 7.5 2.2 -0.7 56 3.2 WNW 17 30 9 16 1005.7 1005.7 0.0
01/05:00pm 8.0 0.6 -1.0 53 3.5 WNW 28 37 15 20 1005.0 1005.0 0.0
01/04:30pm 8.1 -0.3 -0.9 53 3.5 WNW 33 44 18 24 1004.6 1004.6 0.0
01/04:24pm 8.1 -0.3 -0.9 53 3.5 WNW 33 54 18 29 1004.6 1004.6 0.0
01/04:00pm 9.0 0.6 -0.9 50 3.9 WNW 33 43 18 23 1004.3 1004.3 0.0
01/03:30pm 9.0 1.3 -0.3 52 3.7 WNW 30 39 16 21 1004.4 1004.4 0.0
01/03:00pm 8.9 0.6 -0.4 52 3.7 WNW 33 46 18 25 1004.1 1004.1 0.0
01/02:43pm 8.6 0.5 -0.4 53 3.5 WNW 32 52 17 28 1003.5 1003.5 0.0
01/02:30pm 8.5 -0.5 0.2 56 3.3 WNW 37 50 20 27 1003.6 1003.6 0.0
01/02:00pm 8.6 -0.2 1.3 60 3.0 W 37 52 20 28 1003.4 1003.4 0.0
01/01:59pm 8.6 -0.6 1.3 60 3.0 W 39 57 21 31 1003.4 1003.4 0.0
01/01:30pm 9.9 0.9 0.0 50 4.0 W 37 52 20 28 1002.9 1002.9 0.0
01/01:00pm 9.6 0.1 -1.1 47 4.2 W 39 54 21 29 1002.8 1002.8 0.0
01/12:30pm 9.6 0.2 -0.3 50 3.9 W 39 52 21 28 1002.5 1002.5 0.0
01/12:00pm 9.1 0.1 0.0 53 3.6 W 37 48 20 26 1002.6 1002.6 0.0
01/11:30am 8.5 0.5 0.2 56 3.3 W 32 44 17 24 1002.6 1002.6 0.0
01/11:00am 8.0 -0.2 0.3 58 3.1 WNW 33 48 18 26 1002.5 1002.5 0.0
01/10:30am 8.2 -0.3 2.9 69 2.2 W 37 48 20 26 1002.4 1002.4 0.0
01/10:00am 7.8 -0.1 1.2 63 2.7 W 32 44 17 24 1001.8 1001.8 0.0
01/09:47am 7.7 1.0 1.3 64 2.6 W 26 43 14 23 1001.5 1001.5 0.0
01/09:30am 7.1 2.6 2.2 71 2.0 WNW 15 22 8 12 1001.2 1001.2 0.0
01/09:00am 6.0 0.4 3.5 84 1.1 W 22 30 12 16 1000.6 1000.6 0.6
01/08:30am 6.7 -3.5 3.3 79 1.4 WSW 46 61 25 33 1000.1 1000.1 0.4
01/08:20am 7.8 0.7 3.3 73 1.9 W 30 52 16 28 999.6 999.6 0.2
01/08:00am 7.6 1.6 3.1 73 1.9 W 24 41 13 22 999.1 999.1 0.2
01/07:30am 8.1 1.3 3.2 71 2.1 WNW 28 39 15 21 998.4 998.4 0.2
01/07:00am 8.4 0.8 3.7 72 2.0 WNW 33 50 18 27 997.5 997.5 0.2
01/06:53am 8.6 1.1 3.6 71 2.2 WNW 32 50 17 27 997.4 997.4 0.2
01/06:30am 8.9 2.7 4.3 73 2.0 WNW 26 41 14 22 997.5 997.5 0.0
01/06:00am 9.0 4.0 4.8 75 1.9 WNW 20 32 11 17 997.1 997.1 0.0
01/05:30am 9.9 4.8 3.9 66 2.6 NW 20 35 11 19 996.5 996.5 0.0
01/05:00am 10.2 3.4 3.3 62 3.0 NW 28 43 15 23 996.0 996.0 0.0
01/04:45am 10.1 3.3 3.2 62 3.0 NW 28 48 15 26 996.0 996.0 0.0
01/04:30am 10.0 3.2 3.1 62 3.0 NNW 28 44 15 24 995.9 995.9 0.0
01/04:00am 9.9 4.7 2.7 61 3.1 NNW 19 37 10 20 996.7 996.7 0.0
01/03:30am 10.0 4.7 2.8 61 3.1 N 20 41 11 22 997.1 997.1 0.0
01/03:00am 10.1 3.2 2.5 59 3.3 N 28 39 15 21 998.0 998.0 0.0
01/02:30am 9.5 4.9 1.7 58 3.2 N 15 24 8 13 999.3 999.3 0.0
01/02:00am 9.3 4.5 2.4 62 2.9 N 17 26 9 14 1000.1 1000.1 0.0
01/01:30am 9.0 2.6 3.0 66 2.6 N 26 44 14 24 1000.7 1000.7 0.0
01/01:00am 9.2 3.6 3.2 66 2.6 N 22 37 12 20 1000.4 1000.4 0.0
01/12:30am 9.3 5.4 3.3 66 2.6 N 13 26 7 14 1002.2 1002.2 0.0
01/12:00am 9.0 4.8 3.6 69 2.3 N 15 28 8 15 1003.5 1003.5 0.0
 
Date/Time
EST
Tmp

°C
App
Tmp
°C
Dew
Point
°C
Rel
Hum
%
Delta-T

°C
Wind Press
QNH
hPa
Press
MSL
hPa
Rain
since
9 am
mm
Dir
 
Spd
km/h
Gust
km/h
Spd
kts
Gust
kts
31/11:30pm 8.4 3.2 3.5 71 2.1 NNE 20 33 11 18 1003.7 1003.7 0.0

Latest Capital City Observations: Canberra | Sydney | Melbourne | Brisbane | Adelaide | Perth | Hobart | Darwin

Other Formats:

Comma delimited format used in spreadsheet applications
http://www.bom.gov.au/fwo/IDT60901/IDT60901.94951.axf

JavaScript Object Notation format (JSON) in row-major order
http://www.bom.gov.au/fwo/IDT60901/IDT60901.94951.json